sensor_id;sensor_type;location;lat;lon;timestamp;temperature;humidity
23475;DHT22;11910;52.086;21.066;2023-09-08T00:01:38;15.50;99.90
23475;DHT22;11910;52.086;21.066;2023-09-08T00:04:03;15.50;99.90
23475;DHT22;11910;52.086;21.066;2023-09-08T00:06:29;15.50;99.90
23475;DHT22;11910;52.086;21.066;2023-09-08T00:08:55;15.40;99.90
23475;DHT22;11910;52.086;21.066;2023-09-08T00:11:20;15.40;99.90
23475;DHT22;11910;52.086;21.066;2023-09-08T00:13:46;15.40;99.90
23475;DHT22;11910;52.086;21.066;2023-09-08T00:16:12;15.40;99.90
23475;DHT22;11910;52.086;21.066;2023-09-08T00:18:37;15.40;99.90
23475;DHT22;11910;52.086;21.066;2023-09-08T00:21:03;15.30;99.90
23475;DHT22;11910;52.086;21.066;2023-09-08T00:23:28;15.30;99.90
23475;DHT22;11910;52.086;21.066;2023-09-08T00:25:54;15.30;99.90
23475;DHT22;11910;52.086;21.066;2023-09-08T00:28:20;15.30;99.90
23475;DHT22;11910;52.086;21.066;2023-09-08T00:30:45;15.30;99.90
23475;DHT22;11910;52.086;21.066;2023-09-08T00:33:11;15.20;99.90
23475;DHT22;11910;52.086;21.066;2023-09-08T00:35:39;15.20;99.90
23475;DHT22;11910;52.086;21.066;2023-09-08T00:38:04;15.20;99.90
23475;DHT22;11910;52.086;21.066;2023-09-08T00:40:30;15.20;99.90
23475;DHT22;11910;52.086;21.066;2023-09-08T00:42:56;15.20;99.90
23475;DHT22;11910;52.086;21.066;2023-09-08T00:45:22;15.20;99.90
23475;DHT22;11910;52.086;21.066;2023-09-08T00:47:50;15.20;99.90
23475;DHT22;11910;52.086;21.066;2023-09-08T00:50:16;15.20;99.90
23475;DHT22;11910;52.086;21.066;2023-09-08T00:52:42;15.20;99.90
23475;DHT22;11910;52.086;21.066;2023-09-08T00:55:08;15.20;99.90
23475;DHT22;11910;52.086;21.066;2023-09-08T00:57:33;15.10;99.90
23475;DHT22;11910;52.086;21.066;2023-09-08T00:59:59;15.10;99.90
23475;DHT22;11910;52.086;21.066;2023-09-08T01:02:28;15.10;99.90
23475;DHT22;11910;52.086;21.066;2023-09-08T01:04:54;15.10;99.90
23475;DHT22;11910;52.086;21.066;2023-09-08T01:07:20;15.00;99.90
23475;DHT22;11910;52.086;21.066;2023-09-08T01:09:47;15.00;99.90
23475;DHT22;11910;52.086;21.066;2023-09-08T01:12:13;15.00;99.90
23475;DHT22;11910;52.086;21.066;2023-09-08T01:14:38;15.00;99.90
23475;DHT22;11910;52.086;21.066;2023-09-08T01:17:04;15.00;99.90
23475;DHT22;11910;52.086;21.066;2023-09-08T01:19:30;14.90;99.90
23475;DHT22;11910;52.086;21.066;2023-09-08T01:27:29;14.90;99.90
23475;DHT22;11910;52.086;21.066;2023-09-08T01:29:57;14.90;99.90
23475;DHT22;11910;52.086;21.066;2023-09-08T01:32:23;14.90;99.90
23475;DHT22;11910;52.086;21.066;2023-09-08T01:34:50;14.90;99.90
23475;DHT22;11910;52.086;21.066;2023-09-08T01:37:17;14.90;99.90
23475;DHT22;11910;52.086;21.066;2023-09-08T01:39:42;14.90;99.90
23475;DHT22;11910;52.086;21.066;2023-09-08T01:42:08;14.90;99.90
23475;DHT22;11910;52.086;21.066;2023-09-08T01:44:34;14.80;99.90
23475;DHT22;11910;52.086;21.066;2023-09-08T01:46:59;14.80;99.90
23475;DHT22;11910;52.086;21.066;2023-09-08T01:49:25;14.80;99.90
23475;DHT22;11910;52.086;21.066;2023-09-08T01:51:51;14.80;99.90
23475;DHT22;11910;52.086;21.066;2023-09-08T01:54:17;14.80;99.90
23475;DHT22;11910;52.086;21.066;2023-09-08T01:56:43;14.70;99.90
23475;DHT22;11910;52.086;21.066;2023-09-08T01:59:08;14.70;99.90
23475;DHT22;11910;52.086;21.066;2023-09-08T02:01:34;14.70;99.90
23475;DHT22;11910;52.086;21.066;2023-09-08T02:03:59;14.60;99.90
23475;DHT22;11910;52.086;21.066;2023-09-08T02:06:25;14.60;99.90
23475;DHT22;11910;52.086;21.066;2023-09-08T02:08:51;14.60;99.90
23475;DHT22;11910;52.086;21.066;2023-09-08T02:11:16;14.60;99.90
23475;DHT22;11910;52.086;21.066;2023-09-08T02:13:42;14.60;99.90
23475;DHT22;11910;52.086;21.066;2023-09-08T02:16:15;14.60;99.90
23475;DHT22;11910;52.086;21.066;2023-09-08T02:18:45;14.60;99.90
23475;DHT22;11910;52.086;21.066;2023-09-08T02:21:11;14.50;99.90
23475;DHT22;11910;52.086;21.066;2023-09-08T02:23:37;14.50;99.90
23475;DHT22;11910;52.086;21.066;2023-09-08T02:26:02;14.50;99.90
23475;DHT22;11910;52.086;21.066;2023-09-08T02:28:28;14.50;99.90
23475;DHT22;11910;52.086;21.066;2023-09-08T02:30:54;14.50;99.90
23475;DHT22;11910;52.086;21.066;2023-09-08T02:33:20;14.40;99.90
23475;DHT22;11910;52.086;21.066;2023-09-08T02:35:45;14.40;99.90
23475;DHT22;11910;52.086;21.066;2023-09-08T02:38:11;14.40;99.90
23475;DHT22;11910;52.086;21.066;2023-09-08T02:40:37;14.40;99.90
23475;DHT22;11910;52.086;21.066;2023-09-08T02:43:03;14.30;99.90
23475;DHT22;11910;52.086;21.066;2023-09-08T02:45:29;14.30;99.90
23475;DHT22;11910;52.086;21.066;2023-09-08T02:47:55;14.30;99.90
23475;DHT22;11910;52.086;21.066;2023-09-08T02:50:26;14.30;99.90
23475;DHT22;11910;52.086;21.066;2023-09-08T02:52:52;14.30;99.90
23475;DHT22;11910;52.086;21.066;2023-09-08T02:55:17;14.30;99.90
23475;DHT22;11910;52.086;21.066;2023-09-08T02:57:43;14.20;99.90
23475;DHT22;11910;52.086;21.066;2023-09-08T03:00:09;14.30;99.90
23475;DHT22;11910;52.086;21.066;2023-09-08T03:02:34;14.30;99.90
23475;DHT22;11910;52.086;21.066;2023-09-08T03:05:01;14.30;99.90
23475;DHT22;11910;52.086;21.066;2023-09-08T03:07:27;14.30;99.90
23475;DHT22;11910;52.086;21.066;2023-09-08T03:09:53;14.30;99.90
23475;DHT22;11910;52.086;21.066;2023-09-08T03:12:18;14.20;99.90
23475;DHT22;11910;52.086;21.066;2023-09-08T03:14:44;14.20;99.90
23475;DHT22;11910;52.086;21.066;2023-09-08T03:17:10;14.20;99.90
23475;DHT22;11910;52.086;21.066;2023-09-08T03:19:36;14.20;99.90
23475;DHT22;11910;52.086;21.066;2023-09-08T03:22:02;14.20;99.90
23475;DHT22;11910;52.086;21.066;2023-09-08T03:24:27;14.20;99.90
23475;DHT22;11910;52.086;21.066;2023-09-08T03:26:53;14.20;99.90
23475;DHT22;11910;52.086;21.066;2023-09-08T03:29:18;14.20;99.90
23475;DHT22;11910;52.086;21.066;2023-09-08T03:31:44;14.10;99.90
23475;DHT22;11910;52.086;21.066;2023-09-08T03:34:09;14.10;99.90
23475;DHT22;11910;52.086;21.066;2023-09-08T03:36:35;14.10;99.90
23475;DHT22;11910;52.086;21.066;2023-09-08T03:39:03;14.00;99.90
23475;DHT22;11910;52.086;21.066;2023-09-08T03:41:29;14.10;99.90
23475;DHT22;11910;52.086;21.066;2023-09-08T03:43:55;14.00;99.90
23475;DHT22;11910;52.086;21.066;2023-09-08T03:46:21;14.10;99.90
23475;DHT22;11910;52.086;21.066;2023-09-08T03:48:46;14.10;99.90
23475;DHT22;11910;52.086;21.066;2023-09-08T03:51:12;14.00;99.90
23475;DHT22;11910;52.086;21.066;2023-09-08T03:53:38;14.00;99.90
23475;DHT22;11910;52.086;21.066;2023-09-08T03:56:03;14.00;99.90
23475;DHT22;11910;52.086;21.066;2023-09-08T03:58:29;14.00;99.90
23475;DHT22;11910;52.086;21.066;2023-09-08T04:00:55;14.00;99.90
23475;DHT22;11910;52.086;21.066;2023-09-08T04:03:20;14.00;99.90
23475;DHT22;11910;52.086;21.066;2023-09-08T04:05:46;14.00;99.90
23475;DHT22;11910;52.086;21.066;2023-09-08T04:08:12;13.90;99.90
23475;DHT22;11910;52.086;21.066;2023-09-08T04:10:38;13.90;99.90
23475;DHT22;11910;52.086;21.066;2023-09-08T04:13:04;13.90;99.90
23475;DHT22;11910;52.086;21.066;2023-09-08T04:15:30;13.80;99.90
23475;DHT22;11910;52.086;21.066;2023-09-08T04:17:55;13.80;99.90
23475;DHT22;11910;52.086;21.066;2023-09-08T04:20:22;13.80;99.90
23475;DHT22;11910;52.086;21.066;2023-09-08T04:22:48;13.80;99.90
23475;DHT22;11910;52.086;21.066;2023-09-08T04:25:14;13.80;99.90
23475;DHT22;11910;52.086;21.066;2023-09-08T04:27:39;13.80;99.90
23475;DHT22;11910;52.086;21.066;2023-09-08T04:30:06;13.90;99.90
23475;DHT22;11910;52.086;21.066;2023-09-08T04:32:32;13.90;99.90
23475;DHT22;11910;52.086;21.066;2023-09-08T04:34:58;13.90;99.90
23475;DHT22;11910;52.086;21.066;2023-09-08T04:37:23;14.00;99.90
23475;DHT22;11910;52.086;21.066;2023-09-08T04:39:49;14.00;99.90
23475;DHT22;11910;52.086;21.066;2023-09-08T04:42:15;14.00;99.90
23475;DHT22;11910;52.086;21.066;2023-09-08T04:44:40;14.00;99.90
23475;DHT22;11910;52.086;21.066;2023-09-08T04:47:06;14.00;99.90
23475;DHT22;11910;52.086;21.066;2023-09-08T04:49:32;14.10;99.90
23475;DHT22;11910;52.086;21.066;2023-09-08T04:51:57;14.10;99.90
23475;DHT22;11910;52.086;21.066;2023-09-08T04:54:23;14.10;99.90
23475;DHT22;11910;52.086;21.066;2023-09-08T04:56:52;14.20;99.90
23475;DHT22;11910;52.086;21.066;2023-09-08T04:59:24;14.20;99.90
23475;DHT22;11910;52.086;21.066;2023-09-08T05:01:50;14.30;99.90
23475;DHT22;11910;52.086;21.066;2023-09-08T05:04:17;14.30;99.90
23475;DHT22;11910;52.086;21.066;2023-09-08T05:06:43;14.40;99.90
23475;DHT22;11910;52.086;21.066;2023-09-08T05:09:08;14.50;99.90
23475;DHT22;11910;52.086;21.066;2023-09-08T05:11:34;14.60;99.90
23475;DHT22;11910;52.086;21.066;2023-09-08T05:14:00;14.70;99.90
23475;DHT22;11910;52.086;21.066;2023-09-08T05:16:25;14.80;99.90
23475;DHT22;11910;52.086;21.066;2023-09-08T05:19:05;14.80;99.90
23475;DHT22;11910;52.086;21.066;2023-09-08T05:21:32;14.90;99.90
23475;DHT22;11910;52.086;21.066;2023-09-08T05:23:58;15.10;99.90
23475;DHT22;11910;52.086;21.066;2023-09-08T05:26:23;15.20;99.90
23475;DHT22;11910;52.086;21.066;2023-09-08T05:28:49;15.40;99.90
23475;DHT22;11910;52.086;21.066;2023-09-08T05:31:14;15.50;99.90
23475;DHT22;11910;52.086;21.066;2023-09-08T05:33:40;15.60;99.90
23475;DHT22;11910;52.086;21.066;2023-09-08T05:36:06;15.80;99.90
23475;DHT22;11910;52.086;21.066;2023-09-08T05:38:31;15.90;99.90
23475;DHT22;11910;52.086;21.066;2023-09-08T05:40:57;16.00;99.90
23475;DHT22;11910;52.086;21.066;2023-09-08T05:43:25;16.10;99.90
23475;DHT22;11910;52.086;21.066;2023-09-08T05:45:51;16.20;99.90
23475;DHT22;11910;52.086;21.066;2023-09-08T05:48:16;16.40;99.90
23475;DHT22;11910;52.086;21.066;2023-09-08T05:50:42;16.50;99.90
23475;DHT22;11910;52.086;21.066;2023-09-08T05:53:08;16.60;99.90
23475;DHT22;11910;52.086;21.066;2023-09-08T05:55:33;16.80;99.90
23475;DHT22;11910;52.086;21.066;2023-09-08T05:57:59;16.90;99.90
23475;DHT22;11910;52.086;21.066;2023-09-08T06:00:24;17.00;99.90
23475;DHT22;11910;52.086;21.066;2023-09-08T06:02:50;17.10;99.90
23475;DHT22;11910;52.086;21.066;2023-09-08T06:05:16;17.20;99.90
23475;DHT22;11910;52.086;21.066;2023-09-08T06:07:42;17.30;99.90
23475;DHT22;11910;52.086;21.066;2023-09-08T06:10:07;17.50;99.90
23475;DHT22;11910;52.086;21.066;2023-09-08T06:12:33;17.60;99.90
23475;DHT22;11910;52.086;21.066;2023-09-08T06:14:59;17.70;99.90
23475;DHT22;11910;52.086;21.066;2023-09-08T06:17:24;17.80;99.90
23475;DHT22;11910;52.086;21.066;2023-09-08T06:19:59;17.90;99.90
23475;DHT22;11910;52.086;21.066;2023-09-08T06:22:25;18.00;99.90
23475;DHT22;11910;52.086;21.066;2023-09-08T06:24:51;18.10;99.90
23475;DHT22;11910;52.086;21.066;2023-09-08T06:27:16;18.20;99.90
23475;DHT22;11910;52.086;21.066;2023-09-08T06:29:42;18.30;99.90
23475;DHT22;11910;52.086;21.066;2023-09-08T06:32:09;18.40;99.90
23475;DHT22;11910;52.086;21.066;2023-09-08T06:34:35;18.50;99.90
23475;DHT22;11910;52.086;21.066;2023-09-08T06:37:01;18.60;99.90
23475;DHT22;11910;52.086;21.066;2023-09-08T06:39:27;18.70;99.90
23475;DHT22;11910;52.086;21.066;2023-09-08T06:41:53;18.80;99.90
23475;DHT22;11910;52.086;21.066;2023-09-08T06:44:22;18.80;99.90
23475;DHT22;11910;52.086;21.066;2023-09-08T06:46:51;18.90;99.90
23475;DHT22;11910;52.086;21.066;2023-09-08T06:49:17;19.00;99.90
23475;DHT22;11910;52.086;21.066;2023-09-08T06:51:42;19.10;99.90
23475;DHT22;11910;52.086;21.066;2023-09-08T06:54:08;19.20;99.90
23475;DHT22;11910;52.086;21.066;2023-09-08T06:56:35;19.30;99.90
23475;DHT22;11910;52.086;21.066;2023-09-08T06:59:01;19.40;99.90
23475;DHT22;11910;52.086;21.066;2023-09-08T07:01:26;19.50;99.90
23475;DHT22;11910;52.086;21.066;2023-09-08T07:03:52;19.60;99.90
23475;DHT22;11910;52.086;21.066;2023-09-08T07:09:35;19.80;99.90
23475;DHT22;11910;52.086;21.066;2023-09-08T07:12:03;19.90;99.90
23475;DHT22;11910;52.086;21.066;2023-09-08T07:14:29;20.00;99.90
23475;DHT22;11910;52.086;21.066;2023-09-08T07:16:55;20.10;99.90
23475;DHT22;11910;52.086;21.066;2023-09-08T07:19:20;20.20;99.90
23475;DHT22;11910;52.086;21.066;2023-09-08T07:21:46;20.30;99.90
23475;DHT22;11910;52.086;21.066;2023-09-08T07:24:11;20.40;99.90
23475;DHT22;11910;52.086;21.066;2023-09-08T07:26:37;20.50;99.90
23475;DHT22;11910;52.086;21.066;2023-09-08T07:29:03;20.60;99.90
23475;DHT22;11910;52.086;21.066;2023-09-08T07:31:28;20.70;99.90
23475;DHT22;11910;52.086;21.066;2023-09-08T07:33:54;20.80;99.90
23475;DHT22;11910;52.086;21.066;2023-09-08T07:36:20;20.90;99.90
23475;DHT22;11910;52.086;21.066;2023-09-08T07:38:45;21.00;99.90
23475;DHT22;11910;52.086;21.066;2023-09-08T07:41:11;21.10;99.90
23475;DHT22;11910;52.086;21.066;2023-09-08T07:43:37;21.20;99.90
23475;DHT22;11910;52.086;21.066;2023-09-08T07:46:06;21.30;99.90
23475;DHT22;11910;52.086;21.066;2023-09-08T07:48:32;21.30;99.90
23475;DHT22;11910;52.086;21.066;2023-09-08T07:50:57;21.40;99.90
23475;DHT22;11910;52.086;21.066;2023-09-08T07:53:52;21.50;99.90
23475;DHT22;11910;52.086;21.066;2023-09-08T07:56:27;21.60;99.90
23475;DHT22;11910;52.086;21.066;2023-09-08T07:58:53;21.60;99.90
23475;DHT22;11910;52.086;21.066;2023-09-08T08:01:18;21.70;99.90
23475;DHT22;11910;52.086;21.066;2023-09-08T08:03:44;21.80;99.90
23475;DHT22;11910;52.086;21.066;2023-09-08T08:06:09;21.90;99.90
23475;DHT22;11910;52.086;21.066;2023-09-08T08:12:11;22.10;99.90
23475;DHT22;11910;52.086;21.066;2023-09-08T08:14:36;22.20;99.90
23475;DHT22;11910;52.086;21.066;2023-09-08T08:17:02;22.30;99.90
23475;DHT22;11910;52.086;21.066;2023-09-08T08:19:28;22.40;99.90
23475;DHT22;11910;52.086;21.066;2023-09-08T08:22:23;22.50;99.90
23475;DHT22;11910;52.086;21.066;2023-09-08T08:24:49;22.70;99.90
23475;DHT22;11910;52.086;21.066;2023-09-08T08:27:30;22.80;99.90
23475;DHT22;11910;52.086;21.066;2023-09-08T08:30:07;22.90;99.90
23475;DHT22;11910;52.086;21.066;2023-09-08T08:32:33;23.00;99.80
23475;DHT22;11910;52.086;21.066;2023-09-08T08:34:59;23.20;99.90
23475;DHT22;11910;52.086;21.066;2023-09-08T08:37:25;23.20;99.30
23475;DHT22;11910;52.086;21.066;2023-09-08T08:39:50;23.30;99.00
23475;DHT22;11910;52.086;21.066;2023-09-08T08:42:16;23.40;99.80
23475;DHT22;11910;52.086;21.066;2023-09-08T08:45:10;23.50;98.90
23475;DHT22;11910;52.086;21.066;2023-09-08T08:47:37;23.70;98.10
23475;DHT22;11910;52.086;21.066;2023-09-08T08:50:03;23.80;97.60
23475;DHT22;11910;52.086;21.066;2023-09-08T08:52:30;23.90;97.50
23475;DHT22;11910;52.086;21.066;2023-09-08T08:54:56;24.10;97.80
23475;DHT22;11910;52.086;21.066;2023-09-08T08:57:43;24.20;96.70
23475;DHT22;11910;52.086;21.066;2023-09-08T09:00:09;24.30;96.00
23475;DHT22;11910;52.086;21.066;2023-09-08T09:02:39;24.50;95.60
23475;DHT22;11910;52.086;21.066;2023-09-08T09:05:09;24.80;95.00
23475;DHT22;11910;52.086;21.066;2023-09-08T09:07:36;24.90;94.70
23475;DHT22;11910;52.086;21.066;2023-09-08T09:10:06;25.30;95.40
23475;DHT22;11910;52.086;21.066;2023-09-08T09:12:32;26.00;94.50
23475;DHT22;11910;52.086;21.066;2023-09-08T09:14:59;26.40;91.50
23475;DHT22;11910;52.086;21.066;2023-09-08T09:17:25;26.70;92.00
23475;DHT22;11910;52.086;21.066;2023-09-08T09:20:13;27.00;91.50
23475;DHT22;11910;52.086;21.066;2023-09-08T09:22:40;27.70;90.80
23475;DHT22;11910;52.086;21.066;2023-09-08T09:25:09;28.00;90.00
23475;DHT22;11910;52.086;21.066;2023-09-08T09:27:35;28.80;88.40
23475;DHT22;11910;52.086;21.066;2023-09-08T09:30:03;29.70;85.30
23475;DHT22;11910;52.086;21.066;2023-09-08T09:32:29;30.40;84.60
23475;DHT22;11910;52.086;21.066;2023-09-08T09:35:15;31.20;78.70
23475;DHT22;11910;52.086;21.066;2023-09-08T09:37:41;32.10;77.00
23475;DHT22;11910;52.086;21.066;2023-09-08T09:40:07;32.80;75.30
23475;DHT22;11910;52.086;21.066;2023-09-08T09:42:38;33.60;74.10
23475;DHT22;11910;52.086;21.066;2023-09-08T09:45:06;34.20;72.00
23475;DHT22;11910;52.086;21.066;2023-09-08T09:47:32;34.60;69.10
23475;DHT22;11910;52.086;21.066;2023-09-08T09:50:07;34.70;66.70
23475;DHT22;11910;52.086;21.066;2023-09-08T09:52:38;34.70;67.00
23475;DHT22;11910;52.086;21.066;2023-09-08T09:55:05;35.10;68.40
23475;DHT22;11910;52.086;21.066;2023-09-08T09:57:31;34.60;65.30
23475;DHT22;11910;52.086;21.066;2023-09-08T09:59:59;35.20;65.80
23475;DHT22;11910;52.086;21.066;2023-09-08T10:02:27;35.80;67.00
23475;DHT22;11910;52.086;21.066;2023-09-08T10:04:55;35.60;66.50
23475;DHT22;11910;52.086;21.066;2023-09-08T10:07:24;36.10;64.20
23475;DHT22;11910;52.086;21.066;2023-09-08T10:09:50;36.80;63.10
23475;DHT22;11910;52.086;21.066;2023-09-08T10:12:16;36.90;60.50
23475;DHT22;11910;52.086;21.066;2023-09-08T10:14:43;37.20;59.50
23475;DHT22;11910;52.086;21.066;2023-09-08T10:17:25;37.20;61.60
23475;DHT22;11910;52.086;21.066;2023-09-08T10:19:57;37.30;59.30
23475;DHT22;11910;52.086;21.066;2023-09-08T10:22:26;37.40;58.50
23475;DHT22;11910;52.086;21.066;2023-09-08T10:24:55;37.50;58.00
23475;DHT22;11910;52.086;21.066;2023-09-08T10:27:23;37.90;59.40
23475;DHT22;11910;52.086;21.066;2023-09-08T10:29:49;38.30;58.00
23475;DHT22;11910;52.086;21.066;2023-09-08T10:32:16;38.60;55.70
23475;DHT22;11910;52.086;21.066;2023-09-08T10:34:44;38.60;55.40
23475;DHT22;11910;52.086;21.066;2023-09-08T10:37:20;38.00;53.70
23475;DHT22;11910;52.086;21.066;2023-09-08T10:39:46;38.20;55.30
23475;DHT22;11910;52.086;21.066;2023-09-08T10:45:01;37.60;53.70
23475;DHT22;11910;52.086;21.066;2023-09-08T10:47:41;37.90;55.00
23475;DHT22;11910;52.086;21.066;2023-09-08T10:50:20;38.20;55.80
23475;DHT22;11910;52.086;21.066;2023-09-08T10:55:40;37.10;56.10
23475;DHT22;11910;52.086;21.066;2023-09-08T10:58:06;35.20;60.20
23475;DHT22;11910;52.086;21.066;2023-09-08T11:00:44;33.60;59.40
23475;DHT22;11910;52.086;21.066;2023-09-08T11:03:46;32.80;63.10
23475;DHT22;11910;52.086;21.066;2023-09-08T11:06:21;31.90;64.70
23475;DHT22;11910;52.086;21.066;2023-09-08T11:09:13;31.40;65.20
23475;DHT22;11910;52.086;21.066;2023-09-08T11:11:39;31.00;65.10
23475;DHT22;11910;52.086;21.066;2023-09-08T11:14:05;30.70;67.10
23475;DHT22;11910;52.086;21.066;2023-09-08T11:16:30;30.40;66.80
23475;DHT22;11910;52.086;21.066;2023-09-08T11:18:58;30.10;70.30
23475;DHT22;11910;52.086;21.066;2023-09-08T11:21:24;30.00;67.90
23475;DHT22;11910;52.086;21.066;2023-09-08T11:23:50;29.70;70.20
23475;DHT22;11910;52.086;21.066;2023-09-08T11:26:15;29.50;71.30
23475;DHT22;11910;52.086;21.066;2023-09-08T11:28:42;29.30;69.30
23475;DHT22;11910;52.086;21.066;2023-09-08T11:31:10;29.20;70.10
23475;DHT22;11910;52.086;21.066;2023-09-08T11:33:36;29.10;69.80
23475;DHT22;11910;52.086;21.066;2023-09-08T11:36:12;28.90;69.30
23475;DHT22;11910;52.086;21.066;2023-09-08T11:38:42;28.90;70.80
23475;DHT22;11910;52.086;21.066;2023-09-08T11:41:08;28.80;72.90
23475;DHT22;11910;52.086;21.066;2023-09-08T11:43:34;28.70;72.10
23475;DHT22;11910;52.086;21.066;2023-09-08T11:46:00;28.70;71.80
23475;DHT22;11910;52.086;21.066;2023-09-08T11:48:26;28.60;72.60
23475;DHT22;11910;52.086;21.066;2023-09-08T11:50:57;28.60;73.60
23475;DHT22;11910;52.086;21.066;2023-09-08T11:53:22;28.60;76.70
23475;DHT22;11910;52.086;21.066;2023-09-08T11:55:49;28.40;71.60
23475;DHT22;11910;52.086;21.066;2023-09-08T11:58:17;28.30;73.60
23475;DHT22;11910;52.086;21.066;2023-09-08T12:00:44;28.30;72.90
23475;DHT22;11910;52.086;21.066;2023-09-08T12:03:14;28.20;74.10
23475;DHT22;11910;52.086;21.066;2023-09-08T12:05:41;28.20;74.20
23475;DHT22;11910;52.086;21.066;2023-09-08T12:08:08;28.10;73.70
23475;DHT22;11910;52.086;21.066;2023-09-08T12:10:41;27.90;73.00
23475;DHT22;11910;52.086;21.066;2023-09-08T12:13:07;27.90;76.60
23475;DHT22;11910;52.086;21.066;2023-09-08T12:15:34;27.90;74.60
23475;DHT22;11910;52.086;21.066;2023-09-08T12:18:02;27.90;75.90
23475;DHT22;11910;52.086;21.066;2023-09-08T12:20:29;27.90;76.70
23475;DHT22;11910;52.086;21.066;2023-09-08T12:22:56;27.80;76.70
23475;DHT22;11910;52.086;21.066;2023-09-08T12:25:22;27.70;73.80
23475;DHT22;11910;52.086;21.066;2023-09-08T12:27:50;27.50;73.90
23475;DHT22;11910;52.086;21.066;2023-09-08T12:30:17;27.40;74.30
23475;DHT22;11910;52.086;21.066;2023-09-08T12:32:46;27.40;75.50
23475;DHT22;11910;52.086;21.066;2023-09-08T12:35:13;27.20;75.80
23475;DHT22;11910;52.086;21.066;2023-09-08T12:37:39;27.20;77.00
23475;DHT22;11910;52.086;21.066;2023-09-08T12:40:07;27.10;75.80
23475;DHT22;11910;52.086;21.066;2023-09-08T12:42:34;27.00;76.70
23475;DHT22;11910;52.086;21.066;2023-09-08T12:44:59;27.00;78.70
23475;DHT22;11910;52.086;21.066;2023-09-08T12:47:26;26.90;80.90
23475;DHT22;11910;52.086;21.066;2023-09-08T12:49:52;26.90;77.00
23475;DHT22;11910;52.086;21.066;2023-09-08T12:52:17;26.80;78.00
23475;DHT22;11910;52.086;21.066;2023-09-08T12:54:43;26.80;77.30
23475;DHT22;11910;52.086;21.066;2023-09-08T12:57:08;26.80;81.20
23475;DHT22;11910;52.086;21.066;2023-09-08T12:59:34;26.70;82.00
23475;DHT22;11910;52.086;21.066;2023-09-08T13:01:59;26.60;82.20
23475;DHT22;11910;52.086;21.066;2023-09-08T13:04:25;26.60;86.40
23475;DHT22;11910;52.086;21.066;2023-09-08T13:06:51;26.50;87.40
23475;DHT22;11910;52.086;21.066;2023-09-08T13:09:16;26.50;83.70
23475;DHT22;11910;52.086;21.066;2023-09-08T13:11:42;26.50;82.70
23475;DHT22;11910;52.086;21.066;2023-09-08T13:14:08;26.60;81.80
23475;DHT22;11910;52.086;21.066;2023-09-08T13:16:34;26.70;80.60
23475;DHT22;11910;52.086;21.066;2023-09-08T13:18:59;26.70;76.60
23475;DHT22;11910;52.086;21.066;2023-09-08T13:21:25;26.80;78.50
23475;DHT22;11910;52.086;21.066;2023-09-08T13:23:51;26.90;80.10
23475;DHT22;11910;52.086;21.066;2023-09-08T13:26:16;26.90;80.00
23475;DHT22;11910;52.086;21.066;2023-09-08T13:28:42;27.00;80.30
23475;DHT22;11910;52.086;21.066;2023-09-08T13:31:08;27.00;77.30
23475;DHT22;11910;52.086;21.066;2023-09-08T13:33:34;27.00;78.70
23475;DHT22;11910;52.086;21.066;2023-09-08T13:35:59;27.10;75.70
23475;DHT22;11910;52.086;21.066;2023-09-08T13:38:25;27.10;74.20
23475;DHT22;11910;52.086;21.066;2023-09-08T13:40:50;27.10;74.50
23475;DHT22;11910;52.086;21.066;2023-09-08T13:43:16;27.10;76.60
23475;DHT22;11910;52.086;21.066;2023-09-08T13:45:42;27.10;76.50
23475;DHT22;11910;52.086;21.066;2023-09-08T13:48:08;27.10;76.30
23475;DHT22;11910;52.086;21.066;2023-09-08T13:50:34;27.10;78.00
23475;DHT22;11910;52.086;21.066;2023-09-08T13:53:00;27.10;75.40
23475;DHT22;11910;52.086;21.066;2023-09-08T13:55:25;27.10;74.70
23475;DHT22;11910;52.086;21.066;2023-09-08T13:57:51;27.10;76.20
23475;DHT22;11910;52.086;21.066;2023-09-08T14:00:17;27.00;76.70
23475;DHT22;11910;52.086;21.066;2023-09-08T14:02:44;27.00;77.80
23475;DHT22;11910;52.086;21.066;2023-09-08T14:05:09;27.00;77.70
23475;DHT22;11910;52.086;21.066;2023-09-08T14:07:35;26.90;78.20
23475;DHT22;11910;52.086;21.066;2023-09-08T14:10:01;26.90;78.10
23475;DHT22;11910;52.086;21.066;2023-09-08T14:12:27;26.90;81.60
23475;DHT22;11910;52.086;21.066;2023-09-08T14:14:52;26.80;80.20
23475;DHT22;11910;52.086;21.066;2023-09-08T14:17:18;26.80;81.20
23475;DHT22;11910;52.086;21.066;2023-09-08T14:19:43;26.70;78.40
23475;DHT22;11910;52.086;21.066;2023-09-08T14:22:09;26.60;78.00
23475;DHT22;11910;52.086;21.066;2023-09-08T14:24:35;26.70;78.60
23475;DHT22;11910;52.086;21.066;2023-09-08T14:27:00;26.70;80.00
23475;DHT22;11910;52.086;21.066;2023-09-08T14:29:26;26.60;78.70
23475;DHT22;11910;52.086;21.066;2023-09-08T14:31:52;26.60;81.50
23475;DHT22;11910;52.086;21.066;2023-09-08T14:34:17;26.50;82.10
23475;DHT22;11910;52.086;21.066;2023-09-08T14:36:43;26.40;81.60
23475;DHT22;11910;52.086;21.066;2023-09-08T14:39:09;26.40;81.40
23475;DHT22;11910;52.086;21.066;2023-09-08T14:41:35;26.30;81.60
23475;DHT22;11910;52.086;21.066;2023-09-08T14:44:00;26.30;81.50
23475;DHT22;11910;52.086;21.066;2023-09-08T14:46:26;26.20;82.30
23475;DHT22;11910;52.086;21.066;2023-09-08T14:48:51;26.20;82.30
23475;DHT22;11910;52.086;21.066;2023-09-08T14:51:17;26.20;84.60
23475;DHT22;11910;52.086;21.066;2023-09-08T14:53:43;26.10;84.10
23475;DHT22;11910;52.086;21.066;2023-09-08T14:56:08;26.00;85.10
23475;DHT22;11910;52.086;21.066;2023-09-08T14:58:34;26.00;85.20
23475;DHT22;11910;52.086;21.066;2023-09-08T15:01:03;25.90;84.50
23475;DHT22;11910;52.086;21.066;2023-09-08T15:03:35;25.80;82.50
23475;DHT22;11910;52.086;21.066;2023-09-08T15:06:01;25.80;82.00
23475;DHT22;11910;52.086;21.066;2023-09-08T15:08:28;25.80;80.60
23475;DHT22;11910;52.086;21.066;2023-09-08T15:10:54;25.70;80.20
23475;DHT22;11910;52.086;21.066;2023-09-08T15:13:20;25.70;85.20
23475;DHT22;11910;52.086;21.066;2023-09-08T15:15:45;25.60;85.70
23475;DHT22;11910;52.086;21.066;2023-09-08T15:18:11;25.60;81.70
23475;DHT22;11910;52.086;21.066;2023-09-08T15:20:37;25.50;84.80
23475;DHT22;11910;52.086;21.066;2023-09-08T15:23:03;25.50;83.60
23475;DHT22;11910;52.086;21.066;2023-09-08T15:25:29;25.50;85.80
23475;DHT22;11910;52.086;21.066;2023-09-08T15:27:54;25.40;86.10
23475;DHT22;11910;52.086;21.066;2023-09-08T15:30:20;25.30;88.20
23475;DHT22;11910;52.086;21.066;2023-09-08T15:32:45;25.30;86.20